sensor_id;sensor_type;location;lat;lon;timestamp;temperature;humidity
66522;SHT31;53349;53.538;8.584;2023-04-27T00:01:11;6.72;67.48
66522;SHT31;53349;53.538;8.584;2023-04-27T00:03:37;6.72;67.53
66522;SHT31;53349;53.538;8.584;2023-04-27T00:06:03;6.68;67.48
66522;SHT31;53349;53.538;8.584;2023-04-27T00:08:28;6.69;67.48
66522;SHT31;53349;53.538;8.584;2023-04-27T00:10:55;6.72;67.60
66522;SHT31;53349;53.538;8.584;2023-04-27T00:13:20;6.68;67.75
66522;SHT31;53349;53.538;8.584;2023-04-27T00:15:46;6.67;67.81
66522;SHT31;53349;53.538;8.584;2023-04-27T00:18:11;6.65;67.90
66522;SHT31;53349;53.538;8.584;2023-04-27T00:20:36;6.61;68.03
66522;SHT31;53349;53.538;8.584;2023-04-27T00:23:02;6.64;68.18
66522;SHT31;53349;53.538;8.584;2023-04-27T00:25:27;6.58;68.24
66522;SHT31;53349;53.538;8.584;2023-04-27T00:27:53;6.59;68.34
66522;SHT31;53349;53.538;8.584;2023-04-27T00:30:19;6.58;68.39
66522;SHT31;53349;53.538;8.584;2023-04-27T00:32:44;6.58;68.46
66522;SHT31;53349;53.538;8.584;2023-04-27T00:35:10;6.59;68.49
66522;SHT31;53349;53.538;8.584;2023-04-27T00:37:35;6.55;68.73
66522;SHT31;53349;53.538;8.584;2023-04-27T00:40:03;6.55;68.88
66522;SHT31;53349;53.538;8.584;2023-04-27T00:42:28;6.54;68.89
66522;SHT31;53349;53.538;8.584;2023-04-27T00:44:56;6.52;68.85
66522;SHT31;53349;53.538;8.584;2023-04-27T00:47:22;6.55;68.81
66522;SHT31;53349;53.538;8.584;2023-04-27T00:49:47;6.52;68.66
66522;SHT31;53349;53.538;8.584;2023-04-27T00:52:13;6.52;68.73
66522;SHT31;53349;53.538;8.584;2023-04-27T00:54:38;6.51;68.81
66522;SHT31;53349;53.538;8.584;2023-04-27T00:57:04;6.49;68.79
66522;SHT31;53349;53.538;8.584;2023-04-27T00:59:29;6.48;68.75
66522;SHT31;53349;53.538;8.584;2023-04-27T01:01:55;6.46;68.78
66522;SHT31;53349;53.538;8.584;2023-04-27T01:04:20;6.51;68.91
66522;SHT31;53349;53.538;8.584;2023-04-27T01:06:46;6.46;69.14
66522;SHT31;53349;53.538;8.584;2023-04-27T01:09:11;6.42;69.34
66522;SHT31;53349;53.538;8.584;2023-04-27T01:11:36;6.40;69.48
66522;SHT31;53349;53.538;8.584;2023-04-27T01:14:03;6.42;69.44
66522;SHT31;53349;53.538;8.584;2023-04-27T01:16:29;6.37;69.30
66522;SHT31;53349;53.538;8.584;2023-04-27T01:18:55;6.40;69.25
66522;SHT31;53349;53.538;8.584;2023-04-27T01:21:20;6.41;69.33
66522;SHT31;53349;53.538;8.584;2023-04-27T01:23:45;6.41;69.66
66522;SHT31;53349;53.538;8.584;2023-04-27T01:26:11;6.40;69.95
66522;SHT31;53349;53.538;8.584;2023-04-27T01:28:36;6.32;70.04
66522;SHT31;53349;53.538;8.584;2023-04-27T01:31:01;6.34;70.26
66522;SHT31;53349;53.538;8.584;2023-04-27T01:33:26;6.30;70.42
66522;SHT31;53349;53.538;8.584;2023-04-27T01:35:53;6.25;70.31
66522;SHT31;53349;53.538;8.584;2023-04-27T01:38:19;6.25;70.35
66522;SHT31;53349;53.538;8.584;2023-04-27T01:40:44;6.25;70.30
66522;SHT31;53349;53.538;8.584;2023-04-27T01:43:09;6.28;70.19
66522;SHT31;53349;53.538;8.584;2023-04-27T01:45:34;6.27;70.26
66522;SHT31;53349;53.538;8.584;2023-04-27T01:48:00;6.24;70.17
66522;SHT31;53349;53.538;8.584;2023-04-27T01:50:25;6.25;70.24
66522;SHT31;53349;53.538;8.584;2023-04-27T01:52:50;6.25;70.42
66522;SHT31;53349;53.538;8.584;2023-04-27T01:55:16;6.21;70.50
66522;SHT31;53349;53.538;8.584;2023-04-27T01:57:41;6.24;70.59
66522;SHT31;53349;53.538;8.584;2023-04-27T02:00:07;6.27;70.60
66522;SHT31;53349;53.538;8.584;2023-04-27T02:02:32;6.25;70.61
66522;SHT31;53349;53.538;8.584;2023-04-27T02:04:58;6.24;70.55
66522;SHT31;53349;53.538;8.584;2023-04-27T02:07:23;6.30;70.54
66522;SHT31;53349;53.538;8.584;2023-04-27T02:09:48;6.30;70.50
66522;SHT31;53349;53.538;8.584;2023-04-27T02:12:14;6.30;70.54
66522;SHT31;53349;53.538;8.584;2023-04-27T02:14:40;6.31;70.72
66522;SHT31;53349;53.538;8.584;2023-04-27T02:17:05;6.28;70.87
66522;SHT31;53349;53.538;8.584;2023-04-27T02:19:31;6.31;70.95
66522;SHT31;53349;53.538;8.584;2023-04-27T02:21:56;6.35;70.87
66522;SHT31;53349;53.538;8.584;2023-04-27T02:24:23;6.35;70.89
66522;SHT31;53349;53.538;8.584;2023-04-27T02:26:48;6.32;70.83
66522;SHT31;53349;53.538;8.584;2023-04-27T02:29:15;6.25;70.94
66522;SHT31;53349;53.538;8.584;2023-04-27T02:31:41;6.27;71.01
66522;SHT31;53349;53.538;8.584;2023-04-27T02:34:07;6.27;71.05
66522;SHT31;53349;53.538;8.584;2023-04-27T02:36:32;6.24;71.07
66522;SHT31;53349;53.538;8.584;2023-04-27T02:38:57;6.25;71.13
66522;SHT31;53349;53.538;8.584;2023-04-27T02:41:23;6.25;71.14
66522;SHT31;53349;53.538;8.584;2023-04-27T02:43:49;6.23;71.22
66522;SHT31;53349;53.538;8.584;2023-04-27T02:46:14;6.23;71.23
66522;SHT31;53349;53.538;8.584;2023-04-27T02:48:40;6.16;71.23
66522;SHT31;53349;53.538;8.584;2023-04-27T02:51:05;6.14;71.12
66522;SHT31;53349;53.538;8.584;2023-04-27T02:53:30;6.10;71.04
66522;SHT31;53349;53.538;8.584;2023-04-27T02:55:56;6.09;71.11
66522;SHT31;53349;53.538;8.584;2023-04-27T02:58:21;6.07;70.98
66522;SHT31;53349;53.538;8.584;2023-04-27T03:00:46;6.01;71.08
66522;SHT31;53349;53.538;8.584;2023-04-27T03:03:12;6.01;71.11
66522;SHT31;53349;53.538;8.584;2023-04-27T03:05:37;5.97;71.17
66522;SHT31;53349;53.538;8.584;2023-04-27T03:08:03;6.00;71.16
66522;SHT31;53349;53.538;8.584;2023-04-27T03:10:28;5.99;71.18
66522;SHT31;53349;53.538;8.584;2023-04-27T03:12:54;5.97;71.00
66522;SHT31;53349;53.538;8.584;2023-04-27T03:15:19;5.93;70.82
66522;SHT31;53349;53.538;8.584;2023-04-27T03:17:47;5.91;70.97
66522;SHT31;53349;53.538;8.584;2023-04-27T03:20:13;5.90;71.09
66522;SHT31;53349;53.538;8.584;2023-04-27T03:22:38;5.90;71.02
66522;SHT31;53349;53.538;8.584;2023-04-27T03:25:04;5.89;71.07
66522;SHT31;53349;53.538;8.584;2023-04-27T03:27:29;5.89;71.06
66522;SHT31;53349;53.538;8.584;2023-04-27T03:29:54;5.89;71.14
66522;SHT31;53349;53.538;8.584;2023-04-27T03:32:21;5.83;71.33
66522;SHT31;53349;53.538;8.584;2023-04-27T03:34:46;5.83;71.58
66522;SHT31;53349;53.538;8.584;2023-04-27T03:37:12;5.83;71.64
66522;SHT31;53349;53.538;8.584;2023-04-27T03:39:37;5.86;71.67
66522;SHT31;53349;53.538;8.584;2023-04-27T03:42:04;5.85;71.72
66522;SHT31;53349;53.538;8.584;2023-04-27T03:44:29;5.85;71.76
66522;SHT31;53349;53.538;8.584;2023-04-27T03:46:55;5.86;71.86
66522;SHT31;53349;53.538;8.584;2023-04-27T03:49:20;5.89;71.99
66522;SHT31;53349;53.538;8.584;2023-04-27T03:51:46;5.83;72.05
66522;SHT31;53349;53.538;8.584;2023-04-27T03:54:11;5.87;72.09
66522;SHT31;53349;53.538;8.584;2023-04-27T03:56:36;5.86;72.05
66522;SHT31;53349;53.538;8.584;2023-04-27T03:59:03;5.87;72.15
66522;SHT31;53349;53.538;8.584;2023-04-27T04:01:28;5.82;72.39
66522;SHT31;53349;53.538;8.584;2023-04-27T04:03:54;5.80;72.54
66522;SHT31;53349;53.538;8.584;2023-04-27T04:06:19;5.82;72.42
66522;SHT31;53349;53.538;8.584;2023-04-27T04:08:44;5.83;72.46
66522;SHT31;53349;53.538;8.584;2023-04-27T04:11:10;5.82;72.57
66522;SHT31;53349;53.538;8.584;2023-04-27T04:13:35;5.86;72.74
66522;SHT31;53349;53.538;8.584;2023-04-27T04:16:01;5.90;72.95
66522;SHT31;53349;53.538;8.584;2023-04-27T04:18:27;5.90;73.20
66522;SHT31;53349;53.538;8.584;2023-04-27T04:20:52;5.91;73.30
66522;SHT31;53349;53.538;8.584;2023-04-27T04:23:19;5.96;73.32
66522;SHT31;53349;53.538;8.584;2023-04-27T04:25:44;5.97;73.34
66522;SHT31;53349;53.538;8.584;2023-04-27T04:28:10;5.99;73.33
66522;SHT31;53349;53.538;8.584;2023-04-27T04:30:35;6.01;73.35
66522;SHT31;53349;53.538;8.584;2023-04-27T04:33:01;6.06;73.33
66522;SHT31;53349;53.538;8.584;2023-04-27T04:35:26;6.04;73.35
66522;SHT31;53349;53.538;8.584;2023-04-27T04:37:51;6.07;72.98
66522;SHT31;53349;53.538;8.584;2023-04-27T04:40:16;6.06;72.68
66522;SHT31;53349;53.538;8.584;2023-04-27T04:42:42;6.09;72.49
66522;SHT31;53349;53.538;8.584;2023-04-27T04:45:07;6.09;72.37
66522;SHT31;53349;53.538;8.584;2023-04-27T04:47:34;6.10;72.22
66522;SHT31;53349;53.538;8.584;2023-04-27T04:50:00;6.11;72.21
66522;SHT31;53349;53.538;8.584;2023-04-27T04:52:26;6.14;72.22
66522;SHT31;53349;53.538;8.584;2023-04-27T04:54:52;6.14;72.10
66522;SHT31;53349;53.538;8.584;2023-04-27T04:57:18;6.17;72.16
66522;SHT31;53349;53.538;8.584;2023-04-27T04:59:43;6.21;72.06
66522;SHT31;53349;53.538;8.584;2023-04-27T05:02:08;6.25;71.99
66522;SHT31;53349;53.538;8.584;2023-04-27T05:04:34;6.40;71.73
66522;SHT31;53349;53.538;8.584;2023-04-27T05:07:00;6.52;71.49
66522;SHT31;53349;53.538;8.584;2023-04-27T05:09:26;6.69;71.13
66522;SHT31;53349;53.538;8.584;2023-04-27T05:11:51;6.86;70.87
66522;SHT31;53349;53.538;8.584;2023-04-27T05:14:18;7.02;70.36
66522;SHT31;53349;53.538;8.584;2023-04-27T05:16:44;7.16;69.93
66522;SHT31;53349;53.538;8.584;2023-04-27T05:19:09;7.23;69.67
66522;SHT31;53349;53.538;8.584;2023-04-27T05:21:34;7.30;69.38
66522;SHT31;53349;53.538;8.584;2023-04-27T05:24:00;7.34;69.37
66522;SHT31;53349;53.538;8.584;2023-04-27T05:26:25;7.35;69.27
66522;SHT31;53349;53.538;8.584;2023-04-27T05:28:52;7.38;69.05
66522;SHT31;53349;53.538;8.584;2023-04-27T05:31:17;7.38;68.81
66522;SHT31;53349;53.538;8.584;2023-04-27T05:33:42;7.50;68.59
66522;SHT31;53349;53.538;8.584;2023-04-27T05:36:08;7.55;68.57
66522;SHT31;53349;53.538;8.584;2023-04-27T05:38:33;7.58;68.62
66522;SHT31;53349;53.538;8.584;2023-04-27T05:40:59;7.55;68.10
66522;SHT31;53349;53.538;8.584;2023-04-27T05:43:24;7.50;68.09
66522;SHT31;53349;53.538;8.584;2023-04-27T05:45:50;7.43;68.22
66522;SHT31;53349;53.538;8.584;2023-04-27T05:48:17;7.41;68.27
66522;SHT31;53349;53.538;8.584;2023-04-27T05:50:43;7.40;68.28
66522;SHT31;53349;53.538;8.584;2023-04-27T05:53:09;7.41;68.30
66522;SHT31;53349;53.538;8.584;2023-04-27T05:55:36;7.38;68.35
66522;SHT31;53349;53.538;8.584;2023-04-27T05:58:01;7.46;68.46
66522;SHT31;53349;53.538;8.584;2023-04-27T06:00:26;7.50;68.27
66522;SHT31;53349;53.538;8.584;2023-04-27T06:02:52;7.51;68.43
66522;SHT31;53349;53.538;8.584;2023-04-27T06:05:19;7.44;68.52
66522;SHT31;53349;53.538;8.584;2023-04-27T06:07:44;7.33;68.87
66522;SHT31;53349;53.538;8.584;2023-04-27T06:10:10;7.54;68.61
66522;SHT31;53349;53.538;8.584;2023-04-27T06:12:36;7.91;68.14
66522;SHT31;53349;53.538;8.584;2023-04-27T06:15:01;8.30;67.50
66522;SHT31;53349;53.538;8.584;2023-04-27T06:17:26;8.33;67.38
66522;SHT31;53349;53.538;8.584;2023-04-27T06:19:51;8.30;66.45
66522;SHT31;53349;53.538;8.584;2023-04-27T06:22:17;8.32;66.48
66522;SHT31;53349;53.538;8.584;2023-04-27T06:24:42;8.44;66.42
66522;SHT31;53349;53.538;8.584;2023-04-27T06:27:07;8.56;65.69
66522;SHT31;53349;53.538;8.584;2023-04-27T06:29:33;8.50;65.24
66522;SHT31;53349;53.538;8.584;2023-04-27T06:31:58;8.49;65.21
66522;SHT31;53349;53.538;8.584;2023-04-27T06:34:23;8.44;65.47
66522;SHT31;53349;53.538;8.584;2023-04-27T06:36:49;8.46;65.75
66522;SHT31;53349;53.538;8.584;2023-04-27T06:39:14;8.85;66.16
66522;SHT31;53349;53.538;8.584;2023-04-27T06:41:39;9.25;66.86
66522;SHT31;53349;53.538;8.584;2023-04-27T06:44:04;9.45;66.16
66522;SHT31;53349;53.538;8.584;2023-04-27T06:46:30;10.01;65.06
66522;SHT31;53349;53.538;8.584;2023-04-27T06:48:55;10.85;63.19
66522;SHT31;53349;53.538;8.584;2023-04-27T06:51:21;11.30;61.50
66522;SHT31;53349;53.538;8.584;2023-04-27T06:53:46;11.16;61.22
66522;SHT31;53349;53.538;8.584;2023-04-27T06:56:13;10.85;62.28
66522;SHT31;53349;53.538;8.584;2023-04-27T06:58:38;10.72;62.40
66522;SHT31;53349;53.538;8.584;2023-04-27T07:01:04;10.54;62.33
66522;SHT31;53349;53.538;8.584;2023-04-27T07:03:33;10.52;62.91
66522;SHT31;53349;53.538;8.584;2023-04-27T07:06:01;10.79;61.24
66522;SHT31;53349;53.538;8.584;2023-04-27T07:08:26;10.76;60.93
66522;SHT31;53349;53.538;8.584;2023-04-27T07:10:51;10.69;60.85
66522;SHT31;53349;53.538;8.584;2023-04-27T07:13:17;11.22;59.45
66522;SHT31;53349;53.538;8.584;2023-04-27T07:15:43;11.30;59.12
66522;SHT31;53349;53.538;8.584;2023-04-27T07:18:09;11.10;59.10
66522;SHT31;53349;53.538;8.584;2023-04-27T07:20:36;10.92;59.65
66522;SHT31;53349;53.538;8.584;2023-04-27T07:23:02;11.47;58.28
66522;SHT31;53349;53.538;8.584;2023-04-27T07:25:40;12.09;56.41
66522;SHT31;53349;53.538;8.584;2023-04-27T07:28:05;12.25;55.77
66522;SHT31;53349;53.538;8.584;2023-04-27T07:30:31;12.04;55.50
66522;SHT31;53349;53.538;8.584;2023-04-27T07:32:56;12.32;55.66
66522;SHT31;53349;53.538;8.584;2023-04-27T07:35:21;12.63;54.74
66522;SHT31;53349;53.538;8.584;2023-04-27T07:37:47;12.87;54.53
66522;SHT31;53349;53.538;8.584;2023-04-27T07:40:12;13.12;54.09
66522;SHT31;53349;53.538;8.584;2023-04-27T07:42:38;13.29;52.38
66522;SHT31;53349;53.538;8.584;2023-04-27T07:45:03;13.45;51.52
66522;SHT31;53349;53.538;8.584;2023-04-27T07:47:29;13.48;51.35
66522;SHT31;53349;53.538;8.584;2023-04-27T07:49:56;13.52;50.84
66522;SHT31;53349;53.538;8.584;2023-04-27T07:52:21;13.49;51.14
66522;SHT31;53349;53.538;8.584;2023-04-27T07:54:48;13.63;50.56
66522;SHT31;53349;53.538;8.584;2023-04-27T07:57:17;13.49;50.82
66522;SHT31;53349;53.538;8.584;2023-04-27T07:59:42;13.07;50.54
66522;SHT31;53349;53.538;8.584;2023-04-27T08:02:08;12.68;51.85
66522;SHT31;53349;53.538;8.584;2023-04-27T08:04:34;12.40;51.74
66522;SHT31;53349;53.538;8.584;2023-04-27T08:06:59;12.22;52.34
66522;SHT31;53349;53.538;8.584;2023-04-27T08:09:24;11.98;53.55
66522;SHT31;53349;53.538;8.584;2023-04-27T08:11:51;11.81;53.92
66522;SHT31;53349;53.538;8.584;2023-04-27T08:14:18;12.01;53.68
66522;SHT31;53349;53.538;8.584;2023-04-27T08:16:43;12.24;52.48
66522;SHT31;53349;53.538;8.584;2023-04-27T08:19:09;12.52;52.38
66522;SHT31;53349;53.538;8.584;2023-04-27T08:21:37;12.47;52.48
66522;SHT31;53349;53.538;8.584;2023-04-27T08:24:04;12.46;51.73
66522;SHT31;53349;53.538;8.584;2023-04-27T08:26:29;12.49;51.38
66522;SHT31;53349;53.538;8.584;2023-04-27T08:28:55;12.68;51.70
66522;SHT31;53349;53.538;8.584;2023-04-27T08:31:20;12.77;53.68
66522;SHT31;53349;53.538;8.584;2023-04-27T08:33:46;12.80;51.61
66522;SHT31;53349;53.538;8.584;2023-04-27T08:36:12;12.49;51.06
66522;SHT31;53349;53.538;8.584;2023-04-27T08:38:37;12.64;50.72
66522;SHT31;53349;53.538;8.584;2023-04-27T08:41:03;13.00;50.09
66522;SHT31;53349;53.538;8.584;2023-04-27T08:43:33;13.01;50.29
66522;SHT31;53349;53.538;8.584;2023-04-27T08:46:00;12.97;49.91
66522;SHT31;53349;53.538;8.584;2023-04-27T08:48:29;12.80;50.03
66522;SHT31;53349;53.538;8.584;2023-04-27T08:50:55;12.64;50.49
66522;SHT31;53349;53.538;8.584;2023-04-27T08:53:21;12.46;51.25
66522;SHT31;53349;53.538;8.584;2023-04-27T08:55:47;12.28;52.20
66522;SHT31;53349;53.538;8.584;2023-04-27T08:58:13;12.05;52.64
66522;SHT31;53349;53.538;8.584;2023-04-27T09:00:39;11.87;52.95
66522;SHT31;53349;53.538;8.584;2023-04-27T09:03:05;11.75;52.51
66522;SHT31;53349;53.538;8.584;2023-04-27T17:22:48;11.00;59.42
66522;SHT31;53349;53.538;8.584;2023-04-27T17:25:13;11.03;59.52
66522;SHT31;53349;53.538;8.584;2023-04-27T17:27:38;11.00;59.09
66522;SHT31;53349;53.538;8.584;2023-04-27T17:33:07;10.89;58.88
66522;SHT31;53349;53.538;8.584;2023-04-27T17:35:32;10.92;59.27
66522;SHT31;53349;53.538;8.584;2023-04-27T17:37:57;10.88;59.32
66522;SHT31;53349;53.538;8.584;2023-04-27T17:40:23;10.86;59.29
66522;SHT31;53349;53.538;8.584;2023-04-27T17:42:48;10.88;59.46
66522;SHT31;53349;53.538;8.584;2023-04-27T17:45:14;10.79;59.01
66522;SHT31;53349;53.538;8.584;2023-04-27T17:47:49;10.68;59.34
66522;SHT31;53349;53.538;8.584;2023-04-27T17:50:17;10.68;60.02
66522;SHT31;53349;53.538;8.584;2023-04-27T17:52:49;10.66;59.38
66522;SHT31;53349;53.538;8.584;2023-04-27T17:55:16;10.62;59.23
66522;SHT31;53349;53.538;8.584;2023-04-27T17:57:57;10.59;59.83
66522;SHT31;53349;53.538;8.584;2023-04-27T18:00:22;10.54;60.14
66522;SHT31;53349;53.538;8.584;2023-04-27T18:02:48;10.46;60.29
66522;SHT31;53349;53.538;8.584;2023-04-27T18:05:16;10.51;61.85
66522;SHT31;53349;53.538;8.584;2023-04-27T18:07:41;10.49;62.32
66522;SHT31;53349;53.538;8.584;2023-04-27T18:10:10;10.45;62.08
66522;SHT31;53349;53.538;8.584;2023-04-27T18:12:35;10.40;62.30
66522;SHT31;53349;53.538;8.584;2023-04-27T18:15:07;10.38;62.23
66522;SHT31;53349;53.538;8.584;2023-04-27T18:17:32;10.42;62.44
66522;SHT31;53349;53.538;8.584;2023-04-27T18:19:58;10.33;62.07
66522;SHT31;53349;53.538;8.584;2023-04-27T18:22:24;10.28;62.12
66522;SHT31;53349;53.538;8.584;2023-04-27T18:24:52;10.27;62.13
66522;SHT31;53349;53.538;8.584;2023-04-27T18:27:17;10.22;61.88
66522;SHT31;53349;53.538;8.584;2023-04-27T18:29:43;10.20;61.05
66522;SHT31;53349;53.538;8.584;2023-04-27T18:32:08;10.20;62.38
66522;SHT31;53349;53.538;8.584;2023-04-27T18:34:34;10.20;61.28
66522;SHT31;53349;53.538;8.584;2023-04-27T18:37:00;10.13;61.46
66522;SHT31;53349;53.538;8.584;2023-04-27T18:39:39;10.04;61.84
66522;SHT31;53349;53.538;8.584;2023-04-27T18:42:09;10.01;62.00
66522;SHT31;53349;53.538;8.584;2023-04-27T18:44:34;9.94;62.59
66522;SHT31;53349;53.538;8.584;2023-04-27T18:47:00;9.91;62.73
66522;SHT31;53349;53.538;8.584;2023-04-27T18:49:25;9.94;63.24
66522;SHT31;53349;53.538;8.584;2023-04-27T18:51:51;9.96;63.36
66522;SHT31;53349;53.538;8.584;2023-04-27T18:54:16;9.97;62.78
66522;SHT31;53349;53.538;8.584;2023-04-27T18:56:41;9.94;63.04
66522;SHT31;53349;53.538;8.584;2023-04-27T18:59:16;9.98;63.05
66522;SHT31;53349;53.538;8.584;2023-04-27T19:02:12;9.97;62.72
66522;SHT31;53349;53.538;8.584;2023-04-27T19:04:59;9.87;62.71
66522;SHT31;53349;53.538;8.584;2023-04-27T19:07:33;9.89;62.46
66522;SHT31;53349;53.538;8.584;2023-04-27T19:10:17;9.87;62.09
66522;SHT31;53349;53.538;8.584;2023-04-27T19:13:04;9.73;62.73
66522;SHT31;53349;53.538;8.584;2023-04-27T19:16:08;9.66;63.03
66522;SHT31;53349;53.538;8.584;2023-04-27T19:18:38;9.73;63.00
66522;SHT31;53349;53.538;8.584;2023-04-27T19:24:31;9.63;63.04
66522;SHT31;53349;53.538;8.584;2023-04-27T19:27:01;9.57;63.04
66522;SHT31;53349;53.538;8.584;2023-04-27T19:29:27;9.60;62.96
66522;SHT31;53349;53.538;8.584;2023-04-27T19:31:55;9.56;63.06
66522;SHT31;53349;53.538;8.584;2023-04-27T19:34:28;9.52;63.16
66522;SHT31;53349;53.538;8.584;2023-04-27T19:37:01;9.46;63.31
66522;SHT31;53349;53.538;8.584;2023-04-27T19:39:32;9.35;63.58
66522;SHT31;53349;53.538;8.584;2023-04-27T19:42:05;9.21;63.74
66522;SHT31;53349;53.538;8.584;2023-04-27T19:44:43;9.19;63.88
66522;SHT31;53349;53.538;8.584;2023-04-27T19:47:20;9.08;64.05
66522;SHT31;53349;53.538;8.584;2023-04-27T19:50:15;9.03;64.03
66522;SHT31;53349;53.538;8.584;2023-04-27T19:52:48;9.01;64.03
66522;SHT31;53349;53.538;8.584;2023-04-27T19:55:14;9.01;64.03
66522;SHT31;53349;53.538;8.584;2023-04-27T19:57:43;8.94;64.08
66522;SHT31;53349;53.538;8.584;2023-04-27T20:00:32;8.92;64.08
66522;SHT31;53349;53.538;8.584;2023-04-27T20:02:59;8.91;64.20
66522;SHT31;53349;53.538;8.584;2023-04-27T20:05:34;8.84;64.42
66522;SHT31;53349;53.538;8.584;2023-04-27T20:08:01;8.80;64.33
66522;SHT31;53349;53.538;8.584;2023-04-27T20:13:27;8.67;64.47
66522;SHT31;53349;53.538;8.584;2023-04-27T20:15:57;8.71;64.41
66522;SHT31;53349;53.538;8.584;2023-04-27T20:18:23;8.67;64.34
66522;SHT31;53349;53.538;8.584;2023-04-27T20:21:05;8.64;64.50
66522;SHT31;53349;53.538;8.584;2023-04-27T20:23:30;8.60;64.51
66522;SHT31;53349;53.538;8.584;2023-04-27T20:26:05;8.57;64.49
66522;SHT31;53349;53.538;8.584;2023-04-27T20:28:41;8.50;64.59
66522;SHT31;53349;53.538;8.584;2023-04-27T20:31:07;8.46;64.68
66522;SHT31;53349;53.538;8.584;2023-04-27T20:33:33;8.39;64.67
66522;SHT31;53349;53.538;8.584;2023-04-27T20:35:59;8.40;64.66
66522;SHT31;53349;53.538;8.584;2023-04-27T20:38:24;8.42;64.64
66522;SHT31;53349;53.538;8.584;2023-04-27T20:40:57;8.37;64.61
66522;SHT31;53349;53.538;8.584;2023-04-27T20:50:20;8.26;64.50
66522;SHT31;53349;53.538;8.584;2023-04-27T20:52:47;8.16;64.73
66522;SHT31;53349;53.538;8.584;2023-04-27T20:55:13;8.19;64.70
66522;SHT31;53349;53.538;8.584;2023-04-27T20:57:38;8.19;64.73
66522;SHT31;53349;53.538;8.584;2023-04-27T21:00:09;8.17;64.65
66522;SHT31;53349;53.538;8.584;2023-04-27T21:02:41;8.21;64.63
66522;SHT31;53349;53.538;8.584;2023-04-27T21:05:08;8.22;64.60
66522;SHT31;53349;53.538;8.584;2023-04-27T21:07:33;8.15;64.75
66522;SHT31;53349;53.538;8.584;2023-04-27T21:10:01;8.06;64.93
66522;SHT31;53349;53.538;8.584;2023-04-27T21:12:27;8.06;64.90
66522;SHT31;53349;53.538;8.584;2023-04-27T21:14:52;8.09;64.80
66522;SHT31;53349;53.538;8.584;2023-04-27T21:17:17;8.05;64.75
66522;SHT31;53349;53.538;8.584;2023-04-27T21:19:43;8.03;64.73
66522;SHT31;53349;53.538;8.584;2023-04-27T21:22:08;8.03;64.77
66522;SHT31;53349;53.538;8.584;2023-04-27T21:24:34;8.03;64.77
66522;SHT31;53349;53.538;8.584;2023-04-27T21:26:59;7.95;64.86
66522;SHT31;53349;53.538;8.584;2023-04-27T21:29:25;8.03;64.86
66522;SHT31;53349;53.538;8.584;2023-04-27T21:31:50;7.99;64.93
66522;SHT31;53349;53.538;8.584;2023-04-27T21:34:16;7.94;64.99
66522;SHT31;53349;53.538;8.584;2023-04-27T21:36:41;7.92;64.84
66522;SHT31;53349;53.538;8.584;2023-04-27T21:39:06;7.89;64.85
66522;SHT31;53349;53.538;8.584;2023-04-27T21:41:33;7.92;64.98
66522;SHT31;53349;53.538;8.584;2023-04-27T21:43:58;7.92;65.05
66522;SHT31;53349;53.538;8.584;2023-04-27T21:46:24;7.91;65.16
66522;SHT31;53349;53.538;8.584;2023-04-27T21:48:52;7.89;65.13
66522;SHT31;53349;53.538;8.584;2023-04-27T21:51:17;7.88;65.16
66522;SHT31;53349;53.538;8.584;2023-04-27T21:53:43;7.84;65.17
66522;SHT31;53349;53.538;8.584;2023-04-27T21:56:08;7.77;65.24
66522;SHT31;53349;53.538;8.584;2023-04-27T21:58:33;7.72;65.47
66522;SHT31;53349;53.538;8.584;2023-04-27T22:00:59;7.77;65.55
66522;SHT31;53349;53.538;8.584;2023-04-27T22:03:27;7.75;65.53
66522;SHT31;53349;53.538;8.584;2023-04-27T22:05:52;7.65;65.77
66522;SHT31;53349;53.538;8.584;2023-04-27T22:08:18;7.64;65.85
66522;SHT31;53349;53.538;8.584;2023-04-27T22:10:44;7.60;65.87
66522;SHT31;53349;53.538;8.584;2023-04-27T22:13:09;7.55;65.89
66522;SHT31;53349;53.538;8.584;2023-04-27T22:15:35;7.54;65.85
66522;SHT31;53349;53.538;8.584;2023-04-27T22:18:00;7.53;65.98
66522;SHT31;53349;53.538;8.584;2023-04-27T22:20:31;7.47;66.17
66522;SHT31;53349;53.538;8.584;2023-04-27T22:22:57;7.38;66.40
66522;SHT31;53349;53.538;8.584;2023-04-27T22:25:22;7.37;66.49
66522;SHT31;53349;53.538;8.584;2023-04-27T22:27:47;7.37;66.45
66522;SHT31;53349;53.538;8.584;2023-04-27T22:30:13;7.33;66.46
66522;SHT31;53349;53.538;8.584;2023-04-27T22:32:41;7.35;66.52
66522;SHT31;53349;53.538;8.584;2023-04-27T22:35:06;7.34;66.56
66522;SHT31;53349;53.538;8.584;2023-04-27T22:37:32;7.34;66.48
66522;SHT31;53349;53.538;8.584;2023-04-27T22:39:58;7.33;66.64
66522;SHT31;53349;53.538;8.584;2023-04-27T22:42:23;7.27;66.70
66522;SHT31;53349;53.538;8.584;2023-04-27T22:44:48;7.27;66.65
66522;SHT31;53349;53.538;8.584;2023-04-27T22:47:14;7.13;67.01
66522;SHT31;53349;53.538;8.584;2023-04-27T22:49:39;7.10;67.21
66522;SHT31;53349;53.538;8.584;2023-04-27T22:52:04;7.09;67.20
66522;SHT31;53349;53.538;8.584;2023-04-27T22:54:30;7.07;67.32
66522;SHT31;53349;53.538;8.584;2023-04-27T22:56:55;7.06;67.46
66522;SHT31;53349;53.538;8.584;2023-04-27T22:59:20;7.02;67.62
66522;SHT31;53349;53.538;8.584;2023-04-27T23:01:45;7.04;67.60
66522;SHT31;53349;53.538;8.584;2023-04-27T23:04:11;7.06;67.66
66522;SHT31;53349;53.538;8.584;2023-04-27T23:06:36;7.06;67.66
66522;SHT31;53349;53.538;8.584;2023-04-27T23:09:01;7.00;67.74
66522;SHT31;53349;53.538;8.584;2023-04-27T23:11:27;6.96;67.86
66522;SHT31;53349;53.538;8.584;2023-04-27T23:13:52;6.85;68.21
66522;SHT31;53349;53.538;8.584;2023-04-27T23:16:17;6.91;68.23
66522;SHT31;53349;53.538;8.584;2023-04-27T23:18:42;6.89;68.24
66522;SHT31;53349;53.538;8.584;2023-04-27T23:21:07;6.86;68.21
66522;SHT31;53349;53.538;8.584;2023-04-27T23:23:33;6.92;68.23
66522;SHT31;53349;53.538;8.584;2023-04-27T23:25:58;6.92;68.18
66522;SHT31;53349;53.538;8.584;2023-04-27T23:28:23;6.88;68.26
66522;SHT31;53349;53.538;8.584;2023-04-27T23:30:52;6.82;68.42
66522;SHT31;53349;53.538;8.584;2023-04-27T23:33:17;6.71;68.80
66522;SHT31;53349;53.538;8.584;2023-04-27T23:35:43;6.69;68.86
66522;SHT31;53349;53.538;8.584;2023-04-27T23:38:08;6.67;68.95
66522;SHT31;53349;53.538;8.584;2023-04-27T23:40:33;6.67;69.09
66522;SHT31;53349;53.538;8.584;2023-04-27T23:42:59;6.61;69.18
66522;SHT31;53349;53.538;8.584;2023-04-27T23:45:24;6.62;69.21
66522;SHT31;53349;53.538;8.584;2023-04-27T23:47:49;6.62;69.19
66522;SHT31;53349;53.538;8.584;2023-04-27T23:50:14;6.59;69.24
66522;SHT31;53349;53.538;8.584;2023-04-27T23:52:40;6.55;69.47
66522;SHT31;53349;53.538;8.584;2023-04-27T23:55:05;6.49;69.63
66522;SHT31;53349;53.538;8.584;2023-04-27T23:57:31;6.54;69.63
66522;SHT31;53349;53.538;8.584;2023-04-27T23:59:56;6.51;69.65
